createdAt,value
2018-02-15T00:01:01.701Z,17.42
2018-02-15T00:02:06.170Z,18.25
2018-02-15T00:03:10.629Z,18.35
2018-02-15T00:04:15.084Z,19.48
2018-02-15T00:05:19.541Z,17.75
2018-02-15T00:06:24.034Z,19.10
2018-02-15T00:07:29.242Z,16.52
2018-02-15T00:08:34.458Z,17.23
2018-02-15T00:09:38.915Z,18.40
2018-02-15T00:10:44.135Z,16.37
2018-02-15T00:11:49.367Z,17.48
2018-02-15T00:12:54.577Z,18.10
2018-02-15T00:13:59.033Z,18.65
2018-02-15T00:15:03.181Z,18.45
2018-02-15T00:16:07.630Z,19.80
2018-02-15T00:17:12.110Z,16.67
2018-02-15T00:18:16.559Z,19.20
2018-02-15T00:19:21.030Z,18.58
2018-02-15T00:20:25.530Z,19.35
2018-02-15T00:21:29.984Z,12.55
2018-02-15T00:22:34.466Z,19.05
2018-02-15T00:23:39.675Z,17.70
2018-02-15T00:24:44.117Z,17.12
2018-02-15T00:25:49.337Z,19.48
2018-02-15T00:26:53.780Z,18.75
2018-02-15T00:27:58.244Z,16.62
2018-02-15T00:29:02.701Z,18.02
2018-02-15T00:30:07.149Z,14.65
2018-02-15T00:31:11.604Z,19.05
2018-02-15T00:32:16.821Z,18.87
2018-02-15T00:33:21.305Z,15.65
2018-02-15T00:34:25.769Z,20.73
2018-02-15T00:35:30.230Z,19.52
2018-02-15T00:36:34.752Z,17.80
2018-02-15T00:37:39.188Z,19.40
2018-02-15T00:38:44.484Z,17.60
2018-02-15T00:39:48.933Z,19.20
2018-02-15T00:40:54.144Z,18.45
2018-02-15T00:41:58.600Z,18.55
2018-02-15T00:43:03.045Z,18.40
2018-02-15T00:44:07.524Z,19.10
2018-02-15T00:45:11.976Z,18.65
2018-02-15T00:46:16.437Z,19.23
2018-02-15T00:47:20.909Z,16.42
2018-02-15T00:48:26.862Z,12.70
2018-02-15T00:49:32.119Z,15.55
2018-02-15T00:50:36.570Z,12.35
2018-02-15T00:51:41.021Z,12.60
2018-02-15T00:52:46.245Z,16.87
2018-02-15T00:53:50.712Z,15.73
2018-02-15T00:54:55.164Z,12.27
2018-02-15T00:55:59.624Z,15.82
2018-02-15T00:57:04.085Z,13.75
2018-02-15T00:58:08.538Z,14.30
2018-02-15T00:59:13.091Z,15.57
2018-02-15T01:00:17.563Z,16.73
2018-02-15T01:01:22.012Z,15.45
2018-02-15T01:02:26.466Z,13.98
2018-02-15T01:03:30.934Z,18.65
2018-02-15T01:04:35.381Z,16.37
2018-02-15T01:05:40.623Z,15.75
2018-02-15T01:06:45.833Z,15.50
2018-02-15T01:07:51.062Z,15.13
2018-02-15T01:08:56.277Z,12.98
2018-02-15T01:10:00.727Z,14.35
2018-02-15T01:11:05.216Z,15.35
2018-02-15T01:12:10.431Z,11.27
2018-02-15T01:13:14.883Z,11.88
2018-02-15T01:14:19.337Z,16.50
2018-02-15T01:15:23.784Z,16.02
2018-02-15T01:16:29.028Z,16.02
2018-02-15T01:17:33.494Z,15.02
2018-02-15T01:18:37.950Z,17.83
2018-02-15T01:19:42.418Z,19.27
2018-02-15T01:20:46.880Z,17.45
2018-02-15T01:21:51.380Z,17.00
2018-02-15T01:22:55.846Z,18.75
2018-02-15T01:24:00.289Z,18.35
2018-02-15T01:25:05.168Z,18.25
2018-02-15T01:26:09.617Z,18.20
2018-02-15T01:27:14.875Z,17.92
2018-02-15T01:28:19.326Z,17.45
2018-02-15T01:29:23.782Z,19.30
2018-02-15T01:30:28.997Z,17.80
2018-02-15T01:31:34.209Z,18.70
2018-02-15T01:32:38.689Z,17.80
2018-02-15T01:33:43.129Z,18.17
2018-02-15T01:34:48.346Z,19.00
2018-02-15T01:35:52.804Z,16.70
2018-02-15T01:36:58.029Z,17.00
2018-02-15T01:38:03.269Z,17.65
2018-02-15T01:39:07.710Z,18.55
2018-02-15T01:40:12.164Z,19.35
2018-02-15T01:41:17.404Z,17.10
2018-02-15T01:42:22.629Z,17.02
2018-02-15T01:43:27.866Z,18.62
2018-02-15T01:44:33.089Z,16.55
2018-02-15T01:45:38.307Z,16.58
2018-02-15T01:46:42.755Z,17.75
2018-02-15T01:47:47.204Z,16.90
2018-02-15T01:48:51.684Z,16.25
2018-02-15T01:50:04.215Z,13.27
2018-02-15T01:51:08.673Z,17.02
2018-02-15T01:52:13.882Z,17.77
2018-02-15T01:53:19.085Z,15.65
2018-02-15T01:54:23.566Z,14.75
2018-02-15T01:55:28.015Z,16.50
2018-02-15T01:56:33.237Z,18.48
2018-02-15T01:57:37.684Z,15.07
2018-02-15T01:58:42.901Z,14.70
2018-02-15T01:59:48.176Z,18.73
2018-02-15T02:00:52.833Z,15.15
2018-02-15T02:01:57.289Z,14.43
2018-02-15T02:03:01.775Z,15.38
2018-02-15T02:04:07.001Z,14.75
2018-02-15T02:05:11.506Z,17.70
2018-02-15T02:06:16.733Z,13.45
2018-02-15T02:07:21.197Z,19.33
2018-02-15T02:08:25.648Z,16.58
2018-02-15T02:09:30.116Z,17.02
2018-02-15T02:10:34.581Z,17.12
2018-02-15T02:11:39.038Z,16.70
2018-02-15T02:12:43.501Z,17.50
2018-02-15T02:13:48.724Z,17.60
2018-02-15T02:14:54.819Z,14.85
2018-02-15T02:15:59.375Z,17.70
2018-02-15T02:17:03.492Z,15.38
2018-02-15T02:18:07.964Z,19.08
2018-02-15T02:19:12.413Z,17.75
2018-02-15T02:20:16.533Z,19.35
2018-02-15T02:21:21.776Z,16.75
2018-02-15T02:22:26.226Z,17.77
2018-02-15T02:23:30.686Z,17.55
2018-02-15T02:24:35.920Z,18.10
2018-02-15T02:25:41.136Z,18.37
2018-02-15T02:26:46.388Z,16.83
2018-02-15T02:27:50.667Z,16.33
2018-02-15T02:28:55.874Z,16.70
2018-02-15T02:30:00.331Z,18.62
2018-02-15T02:31:05.544Z,16.30
2018-02-15T02:32:10.777Z,14.57
2018-02-15T02:33:15.990Z,14.38
2018-02-15T02:34:20.483Z,16.75
2018-02-15T02:35:24.932Z,14.95
2018-02-15T02:36:30.149Z,17.25
2018-02-15T02:37:35.422Z,16.83
2018-02-15T02:38:39.884Z,17.80
2018-02-15T02:39:44.323Z,16.98
2018-02-15T02:40:49.532Z,14.90
2018-02-15T02:41:54.737Z,16.50
2018-02-15T02:42:59.216Z,13.10
2018-02-15T02:44:03.668Z,14.95
2018-02-15T02:45:08.110Z,16.27
2018-02-15T02:46:12.563Z,16.40
2018-02-15T02:47:17.002Z,16.58
2018-02-15T02:48:21.473Z,16.90
2018-02-15T02:49:25.934Z,16.62
2018-02-15T02:50:31.141Z,18.02
2018-02-15T02:51:35.598Z,16.20
2018-02-15T02:52:40.049Z,14.80
2018-02-15T02:53:44.510Z,17.20
2018-02-15T02:54:49.788Z,15.77
2018-02-15T02:55:54.243Z,16.30
2018-02-15T02:56:58.689Z,15.30
2018-02-15T02:58:03.132Z,13.40
2018-02-15T02:59:07.644Z,13.82
2018-02-15T03:00:12.073Z,15.50
2018-02-15T03:01:16.538Z,14.90
2018-02-15T03:02:20.985Z,15.75
2018-02-15T03:03:25.428Z,15.68
2018-02-15T03:04:30.670Z,16.10
2018-02-15T03:05:35.117Z,14.07
2018-02-15T03:06:39.583Z,15.25
2018-02-15T03:07:44.837Z,17.90
2018-02-15T03:08:49.283Z,15.27
2018-02-15T03:09:53.761Z,15.27
2018-02-15T03:10:58.204Z,16.50
2018-02-15T03:12:02.658Z,14.38
2018-02-15T03:13:07.897Z,14.40
2018-02-15T03:14:12.338Z,17.08
2018-02-15T03:15:16.482Z,15.85
2018-02-15T03:16:20.937Z,14.05
2018-02-15T03:17:25.392Z,18.30
2018-02-15T03:18:29.830Z,14.02
2018-02-15T03:19:34.299Z,13.10
2018-02-15T03:20:38.757Z,17.02
2018-02-15T03:21:43.980Z,14.87
2018-02-15T03:22:49.172Z,13.90
2018-02-15T03:23:53.624Z,13.07
2018-02-15T03:24:58.828Z,14.27
2018-02-15T03:26:04.065Z,14.35
2018-02-15T03:27:08.505Z,16.50
2018-02-15T03:28:12.957Z,11.85
2018-02-15T03:29:17.413Z,12.95
2018-02-15T03:30:21.866Z,12.57
2018-02-15T03:31:26.346Z,11.85
2018-02-15T03:32:30.793Z,11.50
2018-02-15T03:33:35.242Z,14.63
2018-02-15T03:34:39.697Z,13.48
2018-02-15T03:35:43.961Z,14.00
2018-02-15T03:36:49.208Z,14.90
2018-02-15T03:37:53.654Z,17.23
2018-02-15T03:38:58.098Z,17.60
2018-02-15T03:40:02.548Z,17.90
2018-02-15T03:41:07.013Z,11.90
2018-02-15T03:42:11.496Z,13.45
2018-02-15T03:43:15.958Z,12.55
2018-02-15T03:44:21.165Z,15.30
2018-02-15T03:45:25.669Z,16.17
2018-02-15T03:46:30.096Z,15.15
2018-02-15T03:47:35.345Z,13.40
2018-02-15T03:48:39.803Z,12.75
2018-02-15T03:49:44.254Z,12.25
2018-02-15T03:50:49.465Z,8.48
2018-02-15T03:51:53.917Z,11.45
2018-02-15T03:52:58.394Z,10.07
2018-02-15T03:54:02.853Z,11.73
2018-02-15T03:55:07.310Z,11.40
2018-02-15T03:56:11.761Z,14.48
2018-02-15T03:57:16.228Z,13.32
2018-02-15T03:58:20.698Z,14.55
2018-02-15T03:59:25.182Z,12.15
2018-02-15T04:00:30.389Z,11.77
2018-02-15T04:01:34.842Z,13.95
2018-02-15T04:02:39.297Z,10.50
2018-02-15T04:03:43.756Z,12.50
2018-02-15T04:04:48.227Z,12.35
2018-02-15T04:05:52.678Z,12.20
2018-02-15T04:06:57.229Z,13.98
2018-02-15T04:08:01.703Z,14.13
2018-02-15T04:09:06.185Z,14.32
2018-02-15T04:10:10.648Z,14.40
2018-02-15T04:11:15.090Z,15.90
2018-02-15T04:12:19.600Z,15.77
2018-02-15T04:13:24.042Z,14.38
2018-02-15T04:14:29.286Z,12.73
2018-02-15T04:15:34.511Z,15.40
2018-02-15T04:16:39.717Z,16.15
2018-02-15T04:17:44.937Z,13.35
2018-02-15T04:18:49.409Z,13.57
2018-02-15T04:19:53.881Z,12.15
2018-02-15T04:20:59.110Z,13.62
2018-02-15T04:22:04.306Z,14.65
2018-02-15T04:23:08.753Z,12.55
2018-02-15T04:24:13.957Z,15.68
2018-02-15T04:25:19.970Z,11.85
2018-02-15T04:26:24.434Z,13.10
2018-02-15T04:27:29.665Z,10.65
2018-02-15T04:28:34.881Z,14.87
2018-02-15T04:29:39.341Z,10.80
2018-02-15T04:30:43.807Z,8.20
2018-02-15T04:31:49.034Z,11.98
2018-02-15T04:32:54.257Z,11.88
2018-02-15T04:33:58.731Z,16.30
2018-02-15T04:35:03.166Z,15.25
2018-02-15T04:36:07.647Z,14.52
2018-02-15T04:37:12.093Z,14.13
2018-02-15T04:38:16.558Z,12.15
2018-02-15T04:39:21.016Z,14.30
2018-02-15T04:40:25.482Z,12.98
2018-02-15T04:41:30.033Z,11.73
2018-02-15T04:42:34.469Z,14.07
2018-02-15T04:43:38.918Z,14.52
2018-02-15T04:44:43.672Z,9.43
2018-02-15T04:45:48.120Z,13.35
2018-02-15T04:46:53.366Z,12.70
2018-02-15T04:47:57.925Z,14.43
2018-02-15T04:49:02.366Z,14.90
2018-02-15T04:50:07.582Z,13.85
2018-02-15T04:51:12.059Z,10.23
2018-02-15T04:52:16.586Z,16.08
2018-02-15T04:53:21.044Z,9.25
2018-02-15T04:54:26.265Z,14.45
2018-02-15T04:55:31.494Z,14.73
2018-02-15T04:56:36.719Z,15.70
2018-02-15T04:57:41.969Z,13.30
2018-02-15T04:58:46.438Z,13.35
2018-02-15T04:59:51.658Z,13.75
2018-02-15T05:00:56.113Z,13.05
2018-02-15T05:02:00.578Z,13.50
2018-02-15T05:03:05.056Z,11.38
2018-02-15T05:04:09.511Z,11.98
2018-02-15T05:05:13.964Z,13.52
2018-02-15T05:06:18.426Z,13.07
2018-02-15T05:07:22.936Z,13.07
2018-02-15T05:08:27.397Z,12.00
2018-02-15T05:09:31.852Z,13.00
2018-02-15T05:10:36.318Z,13.43
2018-02-15T05:11:41.520Z,13.18
2018-02-15T05:12:46.741Z,12.05
2018-02-15T05:13:51.213Z,14.60
2018-02-15T05:14:55.688Z,14.10
2018-02-15T05:16:00.144Z,13.38
2018-02-15T05:17:04.593Z,10.95
2018-02-15T05:18:09.820Z,11.45
2018-02-15T05:19:14.292Z,12.18
2018-02-15T05:20:18.758Z,9.98
2018-02-15T05:21:23.976Z,12.10
2018-02-15T05:22:29.328Z,11.27
2018-02-15T05:23:34.304Z,13.75
2018-02-15T05:24:38.794Z,13.48
2018-02-15T05:25:43.247Z,13.13
2018-02-15T05:26:47.707Z,13.98
2018-02-15T05:27:52.161Z,14.25
2018-02-15T05:28:56.698Z,15.30
2018-02-15T05:30:02.027Z,11.38
2018-02-15T05:31:06.501Z,14.65
2018-02-15T05:32:10.957Z,11.75
2018-02-15T05:33:16.196Z,13.82
2018-02-15T05:34:20.656Z,15.45
2018-02-15T05:35:25.152Z,13.02
2018-02-15T05:36:29.603Z,13.75
2018-02-15T05:37:34.071Z,10.77
2018-02-15T05:38:38.526Z,12.68
2018-02-15T05:39:42.977Z,14.13
2018-02-15T05:40:47.458Z,12.25
2018-02-15T05:41:52.683Z,9.18
2018-02-15T05:42:57.901Z,11.65
2018-02-15T05:44:03.117Z,13.90
2018-02-15T05:45:07.625Z,10.57
2018-02-15T05:46:12.107Z,13.23
2018-02-15T05:47:16.552Z,12.77
2018-02-15T05:48:21.059Z,11.70
2018-02-15T05:49:25.509Z,14.50
2018-02-15T05:50:30.736Z,10.40
2018-02-15T05:51:35.217Z,10.20
2018-02-15T05:52:39.669Z,7.82
2018-02-15T05:53:44.118Z,11.32
2018-02-15T05:54:48.572Z,14.00
2018-02-15T05:55:53.793Z,15.80
2018-02-15T05:56:59.041Z,11.30
2018-02-15T05:58:03.502Z,11.15
2018-02-15T05:59:07.944Z,9.88
2018-02-15T06:00:12.777Z,11.12
2018-02-15T06:01:17.232Z,14.30
2018-02-15T06:02:21.717Z,12.60
2018-02-15T06:03:26.168Z,12.88
2018-02-15T06:04:30.633Z,9.80
2018-02-15T06:05:35.022Z,10.60
2018-02-15T06:06:39.665Z,12.85
2018-02-15T06:07:44.224Z,14.20
2018-02-15T06:08:49.057Z,11.18
2018-02-15T06:09:53.525Z,10.30
2018-02-15T06:10:57.973Z,11.82
2018-02-15T06:12:03.945Z,12.48
2018-02-15T06:13:09.181Z,9.70
2018-02-15T06:14:14.397Z,13.38
2018-02-15T06:15:19.620Z,10.98
2018-02-15T06:16:24.090Z,10.05
2018-02-15T06:17:28.549Z,13.05
2018-02-15T06:18:33.806Z,10.95
2018-02-15T06:19:38.287Z,9.95
2018-02-15T06:20:42.744Z,14.30
2018-02-15T06:21:47.196Z,9.52
2018-02-15T06:22:51.649Z,13.73
2018-02-15T06:23:56.214Z,12.32
2018-02-15T06:25:00.690Z,15.57
2018-02-15T06:26:05.159Z,14.93
2018-02-15T06:27:09.681Z,13.90
2018-02-15T06:28:15.094Z,13.30
2018-02-15T06:29:19.612Z,15.27
2018-02-15T06:30:24.055Z,14.90
2018-02-15T06:31:28.533Z,11.32
2018-02-15T06:32:33.000Z,10.98
2018-02-15T06:33:37.453Z,14.80
2018-02-15T06:34:41.939Z,16.45
2018-02-15T06:35:46.397Z,20.48
2018-02-15T06:36:51.615Z,14.60
2018-02-15T06:37:56.066Z,12.68
2018-02-15T06:39:00.759Z,15.63
2018-02-15T06:40:05.678Z,17.17
2018-02-15T06:41:10.913Z,11.93
2018-02-15T06:42:16.138Z,11.75
2018-02-15T06:43:21.451Z,12.35
2018-02-15T06:44:25.910Z,14.80
2018-02-15T06:45:30.413Z,15.77
2018-02-15T06:46:34.870Z,15.20
2018-02-15T06:47:39.337Z,15.65
2018-02-15T06:48:43.795Z,13.88
2018-02-15T06:49:48.260Z,16.80
2018-02-15T06:50:52.733Z,15.82
2018-02-15T06:51:57.222Z,17.23
2018-02-15T06:53:01.710Z,18.55
2018-02-15T06:54:06.367Z,15.80
2018-02-15T06:55:11.583Z,14.40
2018-02-15T06:56:16.078Z,15.60
2018-02-15T06:57:20.532Z,16.10
2018-02-15T06:58:25.748Z,11.82
2018-02-15T06:59:30.189Z,14.60
2018-02-15T07:00:34.681Z,13.55
2018-02-15T07:01:39.965Z,9.00
2018-02-15T07:02:44.423Z,11.00
2018-02-15T07:03:49.634Z,16.58
2018-02-15T07:04:54.114Z,15.98
2018-02-15T07:05:58.244Z,17.70
2018-02-15T07:07:02.721Z,18.15
2018-02-15T07:08:07.174Z,14.15
2018-02-15T07:09:12.573Z,17.05
2018-02-15T07:10:17.027Z,14.32
2018-02-15T07:11:21.477Z,18.90
2018-02-15T07:12:25.961Z,18.48
2018-02-15T07:13:31.172Z,14.63
2018-02-15T07:14:37.124Z,13.38
2018-02-15T07:15:42.348Z,12.48
2018-02-15T07:16:46.809Z,14.95
2018-02-15T07:17:51.276Z,14.65
2018-02-15T07:18:55.738Z,17.55
2018-02-15T07:20:00.192Z,13.00
2018-02-15T07:21:04.448Z,12.90
2018-02-15T07:22:08.893Z,9.60
2018-02-15T07:23:13.376Z,15.70
2018-02-15T07:24:17.822Z,14.60
2018-02-15T07:25:22.274Z,15.88
2018-02-15T07:26:27.503Z,15.90
2018-02-15T07:27:31.638Z,12.32
2018-02-15T07:28:36.132Z,15.18
2018-02-15T07:29:40.579Z,15.50
2018-02-15T07:30:45.053Z,15.93
2018-02-15T07:31:49.520Z,17.67
2018-02-15T07:32:53.972Z,15.60
2018-02-15T07:33:58.443Z,17.98
2018-02-15T07:35:03.698Z,14.35
2018-02-15T07:36:08.163Z,11.52
2018-02-15T07:37:12.822Z,13.82
2018-02-15T07:38:18.029Z,16.12
2018-02-15T07:39:22.513Z,14.77
2018-02-15T07:40:26.980Z,10.02
2018-02-15T07:41:31.470Z,12.70
2018-02-15T07:42:36.700Z,11.82
2018-02-15T07:43:41.955Z,8.93
2018-02-15T07:44:46.454Z,13.43
2018-02-15T07:45:51.726Z,17.00
2018-02-15T07:46:56.241Z,15.23
2018-02-15T07:48:00.694Z,14.18
2018-02-15T07:49:05.722Z,13.18
2018-02-15T07:50:10.789Z,14.77
2018-02-15T07:51:15.093Z,10.15
2018-02-15T07:52:19.064Z,15.55
2018-02-15T07:53:23.336Z,13.62
2018-02-15T07:54:27.623Z,13.75
2018-02-15T07:55:32.704Z,12.85
2018-02-15T07:56:37.719Z,18.00
2018-02-15T07:57:41.994Z,14.45
2018-02-15T07:58:46.278Z,14.30
2018-02-15T07:59:50.536Z,12.85
2018-02-15T08:00:55.029Z,14.48
2018-02-15T08:01:59.481Z,13.35
2018-02-15T08:03:03.938Z,16.85
2018-02-15T08:04:08.823Z,12.48
2018-02-15T08:05:13.273Z,11.88
2018-02-15T08:06:17.749Z,14.90
2018-02-15T08:07:22.194Z,15.45
2018-02-15T08:08:26.640Z,15.95
2018-02-15T08:09:31.181Z,16.80
2018-02-15T08:10:35.617Z,17.10
2018-02-15T08:11:40.086Z,9.32
2018-02-15T08:12:45.309Z,13.70
2018-02-15T08:13:49.752Z,15.70
2018-02-15T08:14:54.204Z,14.98
2018-02-15T08:15:58.655Z,12.30
2018-02-15T08:17:03.152Z,10.05
2018-02-15T08:18:07.594Z,11.88
2018-02-15T08:19:12.043Z,15.35
2018-02-15T08:20:16.497Z,13.85
2018-02-15T08:21:21.714Z,14.43
2018-02-15T08:22:26.946Z,12.88
2018-02-15T08:23:31.520Z,12.82
2018-02-15T08:24:35.950Z,14.00
2018-02-15T08:25:40.399Z,15.88
2018-02-15T08:26:44.849Z,14.10
2018-02-15T08:27:49.334Z,11.98
2018-02-15T08:28:53.760Z,12.95
2018-02-15T08:29:58.204Z,9.93
2018-02-15T08:31:03.430Z,11.75
2018-02-15T08:32:07.870Z,10.15
2018-02-15T08:33:12.354Z,12.77
2018-02-15T08:34:17.562Z,11.48
2018-02-15T08:35:22.027Z,12.77
2018-02-15T08:36:26.479Z,12.20
2018-02-15T08:37:30.965Z,14.73
2018-02-15T08:38:36.393Z,12.40
2018-02-15T08:39:40.888Z,10.23
2018-02-15T08:40:46.096Z,11.63
2018-02-15T08:41:50.554Z,12.88
2018-02-15T08:42:55.001Z,11.60
2018-02-15T08:43:59.457Z,14.27
2018-02-15T08:45:03.922Z,14.02
2018-02-15T08:46:08.697Z,11.18
2018-02-15T08:47:13.144Z,15.00
2018-02-15T08:48:17.609Z,12.20
2018-02-15T08:49:22.094Z,11.50
2018-02-15T08:50:26.534Z,15.13
2018-02-15T08:51:30.989Z,13.52
2018-02-15T08:52:35.446Z,14.00
2018-02-15T08:53:39.911Z,11.43
2018-02-15T08:54:44.394Z,14.80
2018-02-15T08:55:49.043Z,13.88
2018-02-15T08:56:53.490Z,13.18
2018-02-15T08:57:58.753Z,14.82
2018-02-15T08:59:04.145Z,10.25
2018-02-15T09:00:09.050Z,15.02
2018-02-15T09:01:13.501Z,15.90
2018-02-15T09:02:17.961Z,15.65
2018-02-15T09:03:22.429Z,14.15
2018-02-15T09:04:26.917Z,12.13
2018-02-15T09:05:32.157Z,13.52
2018-02-15T09:06:36.605Z,15.45
2018-02-15T09:07:41.045Z,11.85
2018-02-15T09:08:46.269Z,13.90
2018-02-15T09:09:50.532Z,13.57
2018-02-15T09:10:55.014Z,13.65
2018-02-15T09:11:59.461Z,13.02
2018-02-15T09:13:04.005Z,14.38
2018-02-15T09:14:08.424Z,9.10
2018-02-15T09:15:13.663Z,12.35
2018-02-15T09:16:18.918Z,13.15
2018-02-15T09:17:23.032Z,13.48
2018-02-15T09:18:27.477Z,13.32
2018-02-15T09:19:31.994Z,11.93
2018-02-15T09:20:36.425Z,12.35
2018-02-15T09:21:41.674Z,12.93
2018-02-15T09:22:46.886Z,12.60
2018-02-15T09:23:51.338Z,11.75
2018-02-15T09:24:55.793Z,11.57
2018-02-15T09:26:00.265Z,11.75
2018-02-15T09:27:04.746Z,14.15
2018-02-15T09:28:09.381Z,12.20
2018-02-15T09:29:13.821Z,9.60
2018-02-15T09:30:18.272Z,10.15
2018-02-15T09:31:22.719Z,9.20
2018-02-15T09:32:27.189Z,13.00
2018-02-15T09:33:32.416Z,13.25
2018-02-15T09:34:36.874Z,12.65
2018-02-15T09:35:41.332Z,12.05
2018-02-15T09:36:45.778Z,9.65
2018-02-15T09:37:50.252Z,12.50
2018-02-15T09:38:54.700Z,12.18
2018-02-15T09:39:59.158Z,14.05
2018-02-15T09:41:03.626Z,11.07
2018-02-15T09:42:08.081Z,12.77
2018-02-15T09:43:12.580Z,13.70
2018-02-15T09:44:17.033Z,10.80
2018-02-15T09:45:22.295Z,11.27
2018-02-15T09:46:26.774Z,10.90
2018-02-15T09:47:32.078Z,10.55
2018-02-15T09:48:36.533Z,15.35
2018-02-15T09:49:40.982Z,10.95
2018-02-15T09:50:45.447Z,11.23
2018-02-15T09:51:50.668Z,10.60
2018-02-15T09:52:55.890Z,10.38
2018-02-15T09:54:00.369Z,12.30
2018-02-15T09:55:04.904Z,7.72
2018-02-15T09:56:09.359Z,11.98
2018-02-15T09:57:13.920Z,12.10
2018-02-15T09:58:18.030Z,12.40
2018-02-15T09:59:22.502Z,12.27
2018-02-15T10:00:26.950Z,14.65
2018-02-15T10:01:31.401Z,13.10
2018-02-15T10:02:35.863Z,14.27
2018-02-15T10:03:40.318Z,11.90
2018-02-15T10:04:45.549Z,14.05
2018-02-15T10:05:50.565Z,14.90
2018-02-15T10:06:55.783Z,13.88
2018-02-15T10:08:01.010Z,11.60
2018-02-15T10:09:06.225Z,10.32
2018-02-15T10:10:12.205Z,9.32
2018-02-15T10:11:17.422Z,13.48
2018-02-15T10:12:21.874Z,15.23
2018-02-15T10:13:26.326Z,10.75
2018-02-15T10:14:30.770Z,12.40
2018-02-15T10:15:35.241Z,12.27
2018-02-15T10:16:39.694Z,14.20
2018-02-15T10:17:44.137Z,13.48
2018-02-15T10:18:48.934Z,14.45
2018-02-15T10:19:53.384Z,11.35
2018-02-15T10:20:57.897Z,12.05
2018-02-15T10:22:02.338Z,11.85
2018-02-15T10:23:07.553Z,12.80
2018-02-15T10:24:12.009Z,11.38
2018-02-15T10:25:16.466Z,14.05
2018-02-15T10:26:20.933Z,13.18
2018-02-15T10:27:25.377Z,10.27
2018-02-15T10:28:29.833Z,10.20
2018-02-15T10:29:35.045Z,10.00
2018-02-15T10:30:39.714Z,11.77
2018-02-15T10:31:44.180Z,14.10
2018-02-15T10:32:49.389Z,10.40
2018-02-15T10:33:53.832Z,8.63
2018-02-15T10:34:58.300Z,13.07
2018-02-15T10:36:02.758Z,11.20
2018-02-15T10:37:07.296Z,13.38
2018-02-15T10:38:11.733Z,14.40
2018-02-15T10:39:16.177Z,11.60
2018-02-15T10:40:21.413Z,12.93
2018-02-15T10:41:25.865Z,10.07
2018-02-15T10:42:30.398Z,10.38
2018-02-15T10:43:34.839Z,11.25
2018-02-15T10:44:39.260Z,13.35
2018-02-15T10:45:44.645Z,14.43
2018-02-15T10:46:49.089Z,14.25
2018-02-15T10:47:54.336Z,14.05
2018-02-15T10:48:58.904Z,12.98
2018-02-15T10:50:03.338Z,9.98
2018-02-15T10:51:08.563Z,11.23
2018-02-15T10:52:13.021Z,11.60
2018-02-15T10:53:17.497Z,13.13
2018-02-15T10:54:22.738Z,12.13
2018-02-15T10:55:27.958Z,11.52
2018-02-15T10:56:33.198Z,9.90
2018-02-15T10:57:38.418Z,9.10
2018-02-15T10:58:43.671Z,10.88
2018-02-15T10:59:48.105Z,7.70
2018-02-15T11:00:57.979Z,13.70
2018-02-15T11:02:08.043Z,11.80
2018-02-15T11:03:17.988Z,12.25
2018-02-15T11:04:28.058Z,10.23
2018-02-15T11:05:33.110Z,13.18
2018-02-15T11:06:37.551Z,10.00
2018-02-15T11:07:42.767Z,10.63
2018-02-15T11:08:48.082Z,12.48
2018-02-15T11:09:52.541Z,14.65
2018-02-15T11:10:56.663Z,13.82
2018-02-15T11:12:01.121Z,14.23
2018-02-15T11:13:05.569Z,11.00
2018-02-15T11:14:10.014Z,9.35
2018-02-15T11:15:14.486Z,11.25
2018-02-15T11:16:18.938Z,12.65
2018-02-15T11:17:23.409Z,13.20
2018-02-15T11:18:28.625Z,13.10
2018-02-15T11:19:33.837Z,11.05
2018-02-15T11:20:38.303Z,12.00
2018-02-15T11:21:42.759Z,10.68
2018-02-15T11:22:47.973Z,13.57
2018-02-15T11:23:52.417Z,13.75
2018-02-15T11:24:57.836Z,7.47
2018-02-15T11:26:02.314Z,10.32
2018-02-15T11:27:06.767Z,14.65
2018-02-15T11:28:11.244Z,14.55
2018-02-15T11:29:15.745Z,14.23
2018-02-15T11:30:21.171Z,14.77
2018-02-15T11:31:25.711Z,12.88
2018-02-15T11:32:30.166Z,14.35
2018-02-15T11:33:34.862Z,9.90
2018-02-15T11:34:40.082Z,14.07
2018-02-15T11:35:44.543Z,12.23
2018-02-15T11:36:49.015Z,9.15
2018-02-15T11:37:54.234Z,11.95
2018-02-15T11:38:59.448Z,13.65
2018-02-15T11:40:03.936Z,9.40
2018-02-15T11:41:08.386Z,13.02
2018-02-15T11:42:13.620Z,13.65
2018-02-15T11:43:18.845Z,11.32
2018-02-15T11:44:24.061Z,10.02
2018-02-15T11:45:28.521Z,11.80
2018-02-15T11:46:32.977Z,14.05
2018-02-15T11:47:37.452Z,14.27
2018-02-15T11:48:41.904Z,10.20
2018-02-15T11:49:46.342Z,7.32
2018-02-15T11:50:51.902Z,12.23
2018-02-15T11:51:56.396Z,11.93
2018-02-15T11:53:01.646Z,13.62
2018-02-15T11:54:06.079Z,8.60
2018-02-15T11:55:10.329Z,8.25
2018-02-15T11:56:15.541Z,11.18
2018-02-15T11:57:19.989Z,10.75
2018-02-15T11:58:24.464Z,10.90
2018-02-15T11:59:29.718Z,13.32
2018-02-15T12:00:35.012Z,13.20
2018-02-15T12:01:39.442Z,8.82
2018-02-15T12:02:43.901Z,10.00
2018-02-15T12:03:48.356Z,14.35
2018-02-15T12:04:52.917Z,9.73
2018-02-15T12:05:57.353Z,10.43
2018-02-15T12:07:01.883Z,11.10
2018-02-15T12:08:06.322Z,9.93
2018-02-15T12:09:11.586Z,13.20
2018-02-15T12:10:16.035Z,11.60
2018-02-15T12:11:21.988Z,11.15
2018-02-15T12:12:26.448Z,9.25
2018-02-15T12:13:30.886Z,9.85
2018-02-15T12:14:35.375Z,9.95
2018-02-15T12:15:39.814Z,8.25
2018-02-15T12:16:44.262Z,9.23
2018-02-15T12:17:49.485Z,12.00
2018-02-15T12:18:54.712Z,11.50
2018-02-15T12:19:59.307Z,9.05
2018-02-15T12:21:03.761Z,10.27
2018-02-15T12:22:08.208Z,11.45
2018-02-15T12:23:12.653Z,10.50
2018-02-15T12:24:17.100Z,10.65
2018-02-15T12:25:21.572Z,10.38
2018-02-15T12:26:26.073Z,13.45
2018-02-15T12:27:30.516Z,10.90
2018-02-15T12:28:35.749Z,11.30
2018-02-15T12:29:40.956Z,7.00
2018-02-15T12:30:45.433Z,9.82
2018-02-15T12:31:49.885Z,11.63
2018-02-15T12:32:55.108Z,10.63
2018-02-15T12:33:59.358Z,9.18
2018-02-15T12:35:03.810Z,9.98
2018-02-15T12:36:08.310Z,11.25
2018-02-15T12:37:12.780Z,10.55
2018-02-15T12:38:17.250Z,8.77
2018-02-15T12:39:21.685Z,11.48
2018-02-15T12:40:26.908Z,11.27
2018-02-15T12:41:32.154Z,11.10
2018-02-15T12:42:36.618Z,9.98
2018-02-15T12:43:41.126Z,7.43
2018-02-15T12:44:45.739Z,9.15
2018-02-15T12:45:50.185Z,11.02
2018-02-15T12:46:54.661Z,7.72
2018-02-15T12:47:59.127Z,10.40
2018-02-15T12:49:04.337Z,9.90
2018-02-15T12:50:09.642Z,11.27
2018-02-15T12:51:14.096Z,11.23
2018-02-15T12:52:19.338Z,10.10
2018-02-15T12:53:24.054Z,8.27
2018-02-15T12:54:28.501Z,10.18
2018-02-15T12:55:32.937Z,8.57
2018-02-15T12:56:38.354Z,8.25
2018-02-15T12:57:42.820Z,10.23
2018-02-15T12:58:48.554Z,8.88
2018-02-15T12:59:53.822Z,11.55
2018-02-15T13:00:58.076Z,9.80
2018-02-15T13:02:02.504Z,9.55
2018-02-15T13:03:06.998Z,13.45
2018-02-15T13:04:12.256Z,8.80
2018-02-15T13:05:16.910Z,7.47
2018-02-15T13:06:21.355Z,8.00
2018-02-15T13:07:26.567Z,7.70
2018-02-15T13:08:31.065Z,10.50
2018-02-15T13:09:35.676Z,10.98
2018-02-15T13:10:40.189Z,11.43
2018-02-15T13:11:44.630Z,8.23
2018-02-15T13:13:00.478Z,8.50
2018-02-15T13:14:04.784Z,7.10
2018-02-15T13:15:20.592Z,9.02
2018-02-15T13:16:37.119Z,10.82
2018-02-15T13:17:41.599Z,6.12
2018-02-15T13:18:46.286Z,9.48
2018-02-15T13:20:02.828Z,8.20
2018-02-15T13:21:07.511Z,9.90
2018-02-15T13:22:23.257Z,10.90
2018-02-15T13:23:27.906Z,10.65
2018-02-15T13:24:33.352Z,11.20
2018-02-15T13:25:38.595Z,9.13
2018-02-15T13:26:43.207Z,11.23
2018-02-15T13:27:59.454Z,9.48
2018-02-15T13:29:03.910Z,13.27
2018-02-15T13:30:08.341Z,9.52
2018-02-15T13:31:13.752Z,10.98
2018-02-15T13:32:18.249Z,10.73
2018-02-15T13:33:23.268Z,12.13
2018-02-15T13:34:28.501Z,13.98
2018-02-15T13:35:33.725Z,13.52
2018-02-15T13:36:39.011Z,13.07
2018-02-15T13:37:43.462Z,9.43
2018-02-15T13:38:49.462Z,11.75
2018-02-15T13:39:53.729Z,11.50
2018-02-15T13:40:58.960Z,11.50
2018-02-15T13:42:04.191Z,7.87
2018-02-15T13:43:10.082Z,11.12
2018-02-15T13:44:14.610Z,11.10
2018-02-15T13:45:19.225Z,10.52
2018-02-15T13:46:23.665Z,10.15
2018-02-15T13:47:28.912Z,9.85
2018-02-15T13:48:34.196Z,7.12
2018-02-15T13:49:39.605Z,7.40
2018-02-15T13:50:44.059Z,10.05
2018-02-15T13:51:48.498Z,9.38
2018-02-15T13:52:53.842Z,8.38
2018-02-15T13:53:58.335Z,9.63
2018-02-15T13:55:03.577Z,9.60
2018-02-15T13:56:08.137Z,7.12
2018-02-15T13:57:12.567Z,7.60
2018-02-15T13:58:17.044Z,9.98